»·PEaware :: NKS805 KATL-KLAS

NKS805 :: KATL-KLAS

FLIGHT INFORMATION

Flight Status: Arrived
Operator:
Spirit Airlines
More flights by this operator :: More flights under this callsign
Pilot: Jake W. (27785)
Aircraft: AIRBUS A321
(A321)
More flights by this aircraft type
Origin: KATL Hartsfield-Jackson Atlanta
United States
Destination: KLAS McCarran Intl
United States
More flights between these airports :: More routes between these airports
Route: NASSA2 VUZ KM24I ADM TXO/N0464F320 J74 SJN FLG PGS TYSSN5
File this flight plan on PilotEdge
Remarks: RMK / SIMBRIEF
Altitude:
(Current/Filed)
30,000ft
Speed:
(Current/Filed)
461kts
Departed: 08-Mar-20 06:28 PM
Arrived: 08-Mar-20 10:03 PM
Distance/Time
Traveled:
1514nm/3:35
Distance/Time
To Go:
Arrived

Flight Plot

Page will automatically refresh every two minutes.

Flight plan parsing failed; only flown route is shown


Map Options




Map Legend


Flown Route
Filed Route
Departure Airport
Arrival Airport
Navaid (VOR, NDB)
Fix

Horizontal Profiles

Position Reports

Time Latitude Longitude Heading Altitude Ground
Speed
08-Mar-20 18:27 33.716808 -87.459110 281 30452ft 390kts
08-Mar-20 18:28 33.727264 -87.588928 281 30453ft 389kts
08-Mar-20 18:29 33.737402 -87.717137 281 30451ft 388kts
08-Mar-20 18:30 33.747402 -87.845069 281 30452ft 388kts
08-Mar-20 18:31 33.757354 -87.973989 281 30445ft 388kts
08-Mar-20 18:32 33.767383 -88.105037 281 30435ft 399kts
08-Mar-20 18:33 33.777426 -88.238654 280 30426ft 401kts
08-Mar-20 18:34 33.787356 -88.372930 280 30424ft 402kts
08-Mar-20 18:35 33.797106 -88.506462 280 30425ft 401kts
08-Mar-20 18:36 33.806696 -88.639814 280 30425ft 400kts
08-Mar-20 18:37 33.815779 -88.768919 280 30424ft 400kts
08-Mar-20 18:38 33.825065 -88.902292 279 30421ft 399kts
08-Mar-20 18:39 33.834169 -89.035086 279 30404ft 398kts
08-Mar-20 18:40 33.843126 -89.167531 279 30391ft 397kts
08-Mar-20 18:40 33.850429 -89.277183 279 30388ft 395kts
08-Mar-20 18:42 33.860488 -89.430817 278 30388ft 393kts
08-Mar-20 18:43 33.868909 -89.561727 278 30389ft 392kts
08-Mar-20 18:43 33.875608 -89.667748 278 30384ft 392kts
08-Mar-20 18:45 33.885076 -89.820408 278 30388ft 391kts
08-Mar-20 18:46 33.893029 -89.950686 278 30388ft 391kts
08-Mar-20 18:46 33.899594 -90.059749 278 30387ft 391kts
08-Mar-20 18:47 33.907305 -90.190047 278 30376ft 391kts
08-Mar-20 18:49 33.916170 -90.342482 278 30363ft 391kts
08-Mar-20 18:49 33.922387 -90.451711 278 30361ft 392kts
08-Mar-20 18:50 33.929748 -90.583050 277 30362ft 393kts
08-Mar-20 18:51 33.936835 -90.712296 277 30360ft 394kts
08-Mar-20 18:52 33.943919 -90.844468 276 30362ft 395kts
08-Mar-20 18:53 33.950884 -90.976602 276 30361ft 396kts
08-Mar-20 18:54 33.957732 -91.109153 276 30356ft 397kts
08-Mar-20 18:55 33.964471 -91.242104 276 30346ft 398kts
08-Mar-20 18:56 33.971066 -91.375394 276 30343ft 399kts
08-Mar-20 18:57 33.977522 -91.508678 275 30342ft 399kts
08-Mar-20 18:58 33.983826 -91.642175 275 30342ft 400kts
08-Mar-20 18:59 33.989885 -91.773802 275 30342ft 400kts
08-Mar-20 19:00 33.995913 -91.907530 275 30343ft 400kts
08-Mar-20 19:01 34.002346 -92.041203 276 30336ft 398kts
08-Mar-20 19:02 34.010694 -92.174512 276 30323ft 398kts
08-Mar-20 19:03 34.018755 -92.307825 276 30315ft 398kts
08-Mar-20 19:04 34.026641 -92.441397 276 30314ft 399kts
08-Mar-20 19:05 34.034371 -92.574798 275 30314ft 400kts
08-Mar-20 19:06 34.041909 -92.707862 275 30312ft 400kts
08-Mar-20 19:07 34.049364 -92.842053 275 30314ft 401kts
08-Mar-20 19:08 34.056712 -92.976699 275 30314ft 402kts
08-Mar-20 19:09 34.063905 -93.111008 274 30315ft 402kts
08-Mar-20 19:10 34.070958 -93.245528 274 30314ft 403kts
08-Mar-20 19:11 34.077821 -93.379456 274 30315ft 403kts
08-Mar-20 19:12 34.084339 -93.509347 274 30314ft 404kts
08-Mar-20 19:13 34.090976 -93.644158 274 30313ft 404kts
08-Mar-20 19:14 34.096717 -93.764211 273 30311ft 404kts
08-Mar-20 19:15 34.101924 -93.872463 273 30310ft 404kts
08-Mar-20 19:16 34.107677 -93.988248 273 30288ft 406kts
08-Mar-20 19:17 34.113929 -94.124551 272 30280ft 421kts
08-Mar-20 19:18 34.120850 -94.281485 272 30266ft 423kts
08-Mar-20 19:19 34.127207 -94.429779 272 30263ft 422kts
08-Mar-20 19:20 34.132778 -94.563384 272 30262ft 421kts
08-Mar-20 19:21 34.138235 -94.698222 272 30260ft 420kts
08-Mar-20 19:22 34.143243 -94.825358 271 30262ft 420kts
08-Mar-20 19:23 34.148336 -94.957858 271 30253ft 418kts
08-Mar-20 19:24 34.153613 -95.099382 271 30232ft 418kts
08-Mar-20 19:25 34.158696 -95.239787 271 30220ft 418kts
08-Mar-20 19:26 34.163659 -95.381610 271 30215ft 418kts
08-Mar-20 19:27 34.168402 -95.521609 271 30213ft 419kts
08-Mar-20 19:28 34.172635 -95.650819 270 30212ft 419kts
08-Mar-20 19:29 34.176157 -95.762406 270 30211ft 419kts
08-Mar-20 19:30 34.179515 -95.871125 270 30210ft 420kts
08-Mar-20 19:31 34.182180 -95.959905 270 30210ft 420kts
08-Mar-20 19:32 34.185206 -96.063307 270 30208ft 420kts
08-Mar-20 19:33 34.187754 -96.152653 270 30202ft 419kts
08-Mar-20 19:34 34.190186 -96.240310 270 30192ft 419kts
08-Mar-20 19:35 34.193053 -96.346256 270 30182ft 419kts
08-Mar-20 19:36 34.195317 -96.432927 270 30177ft 418kts
08-Mar-20 19:37 34.197797 -96.530704 270 30174ft 418kts
08-Mar-20 19:38 34.200356 -96.634651 270 30173ft 417kts
08-Mar-20 19:39 34.202699 -96.733429 269 30172ft 416kts
08-Mar-20 19:40 34.205125 -96.840089 269 30173ft 415kts
08-Mar-20 19:41 34.207192 -96.934983 269 30173ft 414kts
08-Mar-20 19:42 34.209281 -97.036423 269 30170ft 413kts
08-Mar-20 19:43 34.211677 -97.153018 269 30155ft 414kts
08-Mar-20 19:44 34.219542 -97.270242 272 30130ft 414kts
08-Mar-20 19:45 34.232473 -97.448436 272 30111ft 414kts
08-Mar-20 19:46 34.245604 -97.635221 272 30106ft 414kts
08-Mar-20 19:47 34.255959 -97.786070 271 30110ft 414kts
08-Mar-20 19:48 34.267375 -97.955219 271 30111ft 415kts
08-Mar-20 19:49 34.279840 -98.143904 271 30097ft 414kts
08-Mar-20 19:50 34.291472 -98.324274 271 30080ft 413kts
08-Mar-20 19:51 34.302783 -98.503593 271 30076ft 412kts
08-Mar-20 19:52 34.312394 -98.659516 270 30076ft 411kts
08-Mar-20 19:53 34.321661 -98.813175 270 30077ft 409kts
08-Mar-20 19:54 34.330679 -98.965684 270 30076ft 408kts
08-Mar-20 19:55 34.340153 -99.129729 269 30077ft 407kts
08-Mar-20 19:56 34.349418 -99.293802 269 30077ft 407kts
08-Mar-20 19:57 34.356986 -99.430959 269 30076ft 406kts
08-Mar-20 19:58 34.364036 -99.561279 269 30076ft 406kts
08-Mar-20 19:59 34.371971 -99.711178 269 30074ft 406kts
08-Mar-20 20:00 34.379868 -99.863737 269 30076ft 405kts
08-Mar-20 20:01 34.390297 -100.070799 269 30053ft 406kts
08-Mar-20 20:02 34.396799 -100.204008 269 30034ft 406kts
08-Mar-20 20:03 34.403321 -100.340368 268 30030ft 406kts
08-Mar-20 20:04 34.409687 -100.476724 268 30030ft 405kts
08-Mar-20 20:05 34.415887 -100.612909 268 30030ft 405kts
08-Mar-20 20:06 34.421906 -100.748393 267 30030ft 404kts
08-Mar-20 20:07 34.427802 -100.884336 267 30028ft 404kts
08-Mar-20 20:08 34.433562 -101.020823 267 30025ft 404kts
08-Mar-20 20:09 34.439167 -101.157396 267 30021ft 404kts
08-Mar-20 20:10 34.444610 -101.293868 266 30021ft 404kts
08-Mar-20 20:11 34.449879 -101.429902 266 30021ft 404kts
08-Mar-20 20:12 34.455006 -101.565703 266 30021ft 404kts
08-Mar-20 20:13 34.459943 -101.700855 266 30020ft 403kts
08-Mar-20 20:14 34.464788 -101.836982 266 30021ft 403kts
08-Mar-20 20:15 34.469450 -101.972324 266 30021ft 403kts
08-Mar-20 20:16 34.473971 -102.108518 265 30023ft 403kts
08-Mar-20 20:17 34.478323 -102.244298 266 30032ft 403kts
08-Mar-20 20:18 34.482535 -102.380379 266 30037ft 403kts
08-Mar-20 20:19 34.486556 -102.515638 266 30037ft 401kts
08-Mar-20 20:20 34.490389 -102.650076 265 30037ft 400kts
08-Mar-20 20:21 34.494000 -102.782905 265 30037ft 399kts
08-Mar-20 20:22 34.493033 -102.916594 262 30038ft 394kts
08-Mar-20 20:23 34.488506 -103.049736 262 30039ft 391kts
08-Mar-20 20:24 34.483810 -103.181379 262 30048ft 389kts
08-Mar-20 20:25 34.478994 -103.312098 262 30056ft 386kts
08-Mar-20 20:26 34.474068 -103.442041 262 30057ft 384kts
08-Mar-20 20:27 34.469034 -103.571149 262 30056ft 382kts
08-Mar-20 20:28 34.463869 -103.700335 262 30055ft 380kts
08-Mar-20 20:29 34.458625 -103.828712 262 30057ft 378kts
08-Mar-20 20:30 34.453281 -103.956066 262 30058ft 378kts
08-Mar-20 20:31 34.447748 -104.083629 262 30037ft 379kts
08-Mar-20 20:32 34.442082 -104.211571 262 30003ft 380kts
08-Mar-20 20:33 34.436266 -104.340223 262 29994ft 381kts
08-Mar-20 20:34 34.430264 -104.469471 262 29993ft 383kts
08-Mar-20 20:35 34.424133 -104.598682 262 29993ft 384kts
08-Mar-20 20:36 34.417857 -104.728575 262 29992ft 384kts
08-Mar-20 20:37 34.411452 -104.858538 262 29993ft 385kts
08-Mar-20 20:38 34.404842 -104.988831 262 30002ft 385kts
08-Mar-20 20:39 34.398082 -105.119646 262 30031ft 384kts
08-Mar-20 20:41 34.391233 -105.249184 262 30053ft 383kts
08-Mar-20 20:42 34.384225 -105.378493 262 30057ft 383kts
08-Mar-20 20:43 34.377080 -105.507668 262 30056ft 382kts
08-Mar-20 20:44 34.369784 -105.636516 262 30057ft 380kts
08-Mar-20 20:45 34.370350 -105.763159 266 30056ft 383kts
08-Mar-20 20:46 34.374129 -105.891833 266 30057ft 382kts
08-Mar-20 20:47 34.377773 -106.020751 266 30074ft 384kts
08-Mar-20 20:48 34.381288 -106.150312 266 30104ft 385kts
08-Mar-20 20:49 34.384675 -106.280111 266 30114ft 386kts
08-Mar-20 20:50 34.387910 -106.410341 266 30112ft 388kts
08-Mar-20 20:51 34.391017 -106.541355 266 30112ft 391kts
08-Mar-20 20:52 34.393884 -106.670545 266 30106ft 392kts
08-Mar-20 20:53 34.396986 -106.803184 266 30108ft 395kts
08-Mar-20 20:54 34.399836 -106.936532 266 30116ft 397kts
08-Mar-20 20:55 34.402511 -107.071044 267 30119ft 399kts
08-Mar-20 20:56 34.405024 -107.205784 267 30123ft 400kts
08-Mar-20 20:57 34.407382 -107.341418 267 30121ft 401kts
08-Mar-20 20:58 34.409597 -107.477201 267 30119ft 401kts
08-Mar-20 20:59 34.411650 -107.612484 267 30121ft 401kts
08-Mar-20 21:00 34.413555 -107.746627 266 30119ft 400kts
08-Mar-20 21:00 34.415031 -107.859342 266 30121ft 400kts
08-Mar-20 21:02 34.416836 -108.017437 266 30118ft 401kts
08-Mar-20 21:03 34.418272 -108.152809 267 30124ft 401kts
08-Mar-20 21:03 34.419573 -108.265587 267 30128ft 402kts
08-Mar-20 21:05 34.421021 -108.424157 267 30130ft 404kts
08-Mar-20 21:05 34.421878 -108.537484 267 30130ft 405kts
08-Mar-20 21:06 34.432488 -108.671423 281 30127ft 416kts
08-Mar-20 21:07 34.467318 -108.805712 281 30130ft 417kts
08-Mar-20 21:08 34.501444 -108.940822 281 30131ft 417kts
08-Mar-20 21:09 34.535074 -109.075692 281 30128ft 418kts
08-Mar-20 21:10 34.568526 -109.210749 282 30118ft 419kts
08-Mar-20 21:11 34.601892 -109.346171 282 30113ft 418kts
08-Mar-20 21:12 34.635194 -109.482063 282 30113ft 419kts
08-Mar-20 21:13 34.668390 -109.618263 282 30113ft 418kts
08-Mar-20 21:14 34.700901 -109.752645 282 30112ft 419kts
08-Mar-20 21:15 34.733644 -109.888557 282 30113ft 419kts
08-Mar-20 21:16 34.766256 -110.024666 282 30117ft 419kts
08-Mar-20 21:17 34.798663 -110.160522 282 30123ft 419kts
08-Mar-20 21:18 34.830944 -110.296546 282 30117ft 420kts
08-Mar-20 21:19 34.863301 -110.433736 283 30107ft 421kts
08-Mar-20 21:20 34.895514 -110.571032 283 30098ft 422kts
08-Mar-20 21:21 34.927542 -110.708471 282 30093ft 421kts
08-Mar-20 21:22 34.959517 -110.846549 282 30095ft 422kts
08-Mar-20 21:23 34.991195 -110.983864 282 30100ft 421kts
08-Mar-20 21:24 35.022809 -111.121763 283 30122ft 422kts
08-Mar-20 21:25 35.054189 -111.259398 283 30138ft 421kts
08-Mar-20 21:26 35.085389 -111.397066 283 30139ft 421kts
08-Mar-20 21:27 35.116436 -111.533914 283 30139ft 421kts
08-Mar-20 21:28 35.147229 -111.670496 284 30134ft 421kts
08-Mar-20 21:29 35.183285 -111.807163 285 30139ft 422kts
08-Mar-20 21:30 35.218999 -111.942720 285 30139ft 423kts
08-Mar-20 21:31 35.254906 -112.080150 285 30139ft 423kts
08-Mar-20 21:32 35.290506 -112.217115 285 30139ft 424kts
08-Mar-20 21:33 35.326130 -112.354942 285 30139ft 424kts
08-Mar-20 21:34 35.361587 -112.492839 285 30139ft 424kts
08-Mar-20 21:35 35.396754 -112.630402 285 30138ft 424kts
08-Mar-20 21:36 35.431561 -112.767653 285 30134ft 424kts
08-Mar-20 21:37 35.466494 -112.905872 285 30123ft 424kts
08-Mar-20 21:38 35.501380 -113.044615 285 30098ft 425kts
08-Mar-20 21:39 35.536063 -113.183287 285 30101ft 426kts
08-Mar-20 21:40 35.570787 -113.323108 285 28730ft 434kts
08-Mar-20 21:41 35.606346 -113.467344 285 24438ft 451kts
08-Mar-20 21:42 35.635084 -113.610521 279 21753ft 431kts
08-Mar-20 21:43 35.655104 -113.752180 278 19452ft 413kts
08-Mar-20 21:44 35.674394 -113.889413 278 17218ft 399kts
08-Mar-20 21:45 35.693152 -114.022247 278 15003ft 389kts
08-Mar-20 21:46 35.710914 -114.149909 278 13161ft 368kts
08-Mar-20 21:47 35.727324 -114.269458 277 12021ft 337kts
08-Mar-20 21:48 35.744849 -114.372446 300 11980ft 283kts
08-Mar-20 21:49 35.817840 -114.418291 337 11994ft 303kts
08-Mar-20 21:50 35.896791 -114.454742 336 11676ft 305kts
08-Mar-20 21:51 35.975333 -114.491605 337 10329ft 297kts
08-Mar-20 21:52 36.041414 -114.535220 284 9953ft 242kts
08-Mar-20 21:53 36.054752 -114.617926 279 9991ft 245kts
08-Mar-20 21:54 36.069253 -114.702436 278 8522ft 264kts
08-Mar-20 21:55 36.074570 -114.788075 266 7464ft 222kts
08-Mar-20 21:56 36.074538 -114.862593 266 6338ft 216kts
08-Mar-20 21:57 36.074219 -114.935769 266 5206ft 212kts
08-Mar-20 21:58 36.073943 -115.003366 266 4166ft 188kts
08-Mar-20 21:59 36.073793 -115.059237 265 3284ft 152kts
08-Mar-20 22:00 36.073642 -115.110184 265 2499ft 147kts
08-Mar-20 22:01 36.073643 -115.150325 273 2190ft 44kts
08-Mar-20 22:02 36.076530 -115.157625 317 2190ft 22kts
08-Mar-20 22:03 36.082357 -115.158272 359 2190ft 19kts
08-Mar-20 22:04 36.085373 -115.155241 92 2190ft 9kts

Navigation Log

Ident Type
Flight plan parsing failed, navigation log unavailable